createdAt,value
2022-08-24T00:02:02.485Z,101008.25
2022-08-24T00:04:32.191Z,101008.25
2022-08-24T00:07:01.229Z,101016.66
2022-08-24T00:09:30.028Z,101015.63
2022-08-24T00:11:58.392Z,101010.22
2022-08-24T00:14:26.474Z,101014.06
2022-08-24T00:16:55.454Z,101021.31
2022-08-24T00:19:24.011Z,101025.16
2022-08-24T00:21:52.638Z,101017.91
2022-08-24T00:24:21.218Z,101021.06
2022-08-24T00:26:48.983Z,101023.78
2022-08-24T00:29:18.218Z,101017.53
2022-08-24T00:31:46.038Z,101022.25
2022-08-24T00:34:14.311Z,101028.66
2022-08-24T00:36:42.320Z,101028.59
2022-08-24T00:39:12.280Z,101025.50
2022-08-24T00:41:43.943Z,101021.41
2022-08-24T00:44:11.972Z,101030.13
2022-08-24T00:46:54.084Z,101028.38
2022-08-24T00:49:33.740Z,101029.41
2022-08-24T00:52:25.886Z,101028.03
2022-08-24T00:54:58.730Z,101035.56
2022-08-24T00:57:32.167Z,101031.63
2022-08-24T01:00:12.549Z,101039.72
2022-08-24T01:02:44.489Z,101031.09
2022-08-24T01:05:13.229Z,101030.03
2022-08-24T01:07:41.565Z,101036.25
2022-08-24T01:10:13.843Z,101037.94
2022-08-24T01:12:59.954Z,101042.50
2022-08-24T01:15:37.633Z,101043.34
2022-08-24T01:18:27.172Z,101034.69
2022-08-24T01:21:15.051Z,101057.31
2022-08-24T01:23:48.088Z,101049.09
2022-08-24T01:26:19.966Z,101051.63
2022-08-24T01:28:51.621Z,101045.88
2022-08-24T01:31:24.898Z,101059.34
2022-08-24T01:33:54.497Z,101059.34
2022-08-24T01:36:33.474Z,101056.84
2022-08-24T01:39:06.100Z,101064.91
2022-08-24T01:41:33.869Z,101067.94
2022-08-24T01:44:02.546Z,101066.19
2022-08-24T01:46:30.289Z,101074.44
2022-08-24T01:48:58.780Z,101082.94
2022-08-24T01:51:31.480Z,101088.34
2022-08-24T01:54:03.271Z,101080.41
2022-08-24T01:56:33.293Z,101079.31
2022-08-24T01:59:01.796Z,101079.88
2022-08-24T02:01:32.760Z,101081.88
2022-08-24T02:04:04.115Z,101087.84
2022-08-24T02:06:33.124Z,101087.56
2022-08-24T02:09:01.165Z,101086.72
2022-08-24T02:11:29.158Z,101088.56
2022-08-24T02:13:56.937Z,101096.31
2022-08-24T02:16:25.362Z,101094.94
2022-08-24T02:18:53.368Z,101091.53
2022-08-24T02:21:21.074Z,101092.81
2022-08-24T02:23:49.299Z,101105.16
2022-08-24T02:26:17.603Z,101101.16
2022-08-24T02:28:45.889Z,101111.66
2022-08-24T02:31:14.672Z,101101.19
2022-08-24T02:33:44.393Z,101100.78
2022-08-24T02:36:25.331Z,101108.84
2022-08-24T02:38:56.266Z,101109.31
2022-08-24T02:41:25.792Z,101112.28
2022-08-24T02:43:55.773Z,101118.34
2022-08-24T02:46:27.280Z,101119.09
2022-08-24T02:49:10.710Z,101123.63
2022-08-24T02:51:45.797Z,101117.13
2022-08-24T02:54:18.835Z,101114.00
2022-08-24T02:56:49.142Z,101121.38
2022-08-24T02:59:17.655Z,101117.69
2022-08-24T03:01:46.243Z,101122.81
2022-08-24T03:04:14.882Z,101121.09
2022-08-24T03:09:13.987Z,101128.75
2022-08-24T03:11:45.326Z,101127.91
2022-08-24T03:14:14.787Z,101125.09
2022-08-24T03:16:43.228Z,101131.03
2022-08-24T03:19:11.228Z,101127.63
2022-08-24T03:21:39.939Z,101129.63
2022-08-24T03:24:08.145Z,101128.16
2022-08-24T03:26:35.957Z,101134.00
2022-08-24T03:29:03.795Z,101134.72
2022-08-24T03:31:33.690Z,101137.94
2022-08-24T03:34:01.349Z,101136.84
2022-08-24T03:36:28.959Z,101136.94
2022-08-24T03:38:56.785Z,101138.94
2022-08-24T03:41:25.103Z,101139.22
2022-08-24T03:43:55.832Z,101135.53
2022-08-24T03:46:28.988Z,101139.22
2022-08-24T03:48:58.896Z,101135.94
2022-08-24T03:51:28.514Z,101137.78
2022-08-24T03:53:57.274Z,101141.19
2022-08-24T03:56:28.101Z,101138.63
2022-08-24T03:58:56.515Z,101146.16
2022-08-24T04:01:26.940Z,101149.09
2022-08-24T04:03:55.620Z,101145.31
2022-08-24T04:06:28.350Z,101149.84
2022-08-24T04:08:57.409Z,101152.66
2022-08-24T04:11:28.329Z,101150.38
2022-08-24T04:13:58.698Z,101140.47
2022-08-24T04:16:29.096Z,101141.91
2022-08-24T04:19:10.903Z,101154.22
2022-08-24T04:21:38.939Z,101152.53
2022-08-24T04:24:10.543Z,101149.84
2022-08-24T04:26:44.689Z,101151.28
2022-08-24T04:29:18.692Z,101149.56
2022-08-24T04:31:51.370Z,101153.53
2022-08-24T04:34:19.551Z,101155.66
2022-08-24T04:36:47.965Z,101153.25
2022-08-24T04:39:16.276Z,101155.38
2022-08-24T04:41:57.373Z,101158.03
2022-08-24T04:44:33.300Z,101157.59
2022-08-24T04:47:01.853Z,101160.97
2022-08-24T04:49:30.637Z,101163.38
2022-08-24T04:51:58.505Z,101163.94
2022-08-24T04:54:27.448Z,101157.88
2022-08-24T04:57:10.979Z,101156.72
2022-08-24T04:59:41.387Z,101160.53
2022-08-24T05:02:09.238Z,101159.78
2022-08-24T05:04:37.852Z,101163.31
2022-08-24T05:07:06.540Z,101161.88
2022-08-24T05:09:34.700Z,101162.31
2022-08-24T05:12:03.376Z,101159.44
2022-08-24T05:14:36.615Z,101157.69
2022-08-24T05:17:04.776Z,101157.78
2022-08-24T05:19:37.001Z,101159.91
2022-08-24T05:22:05.492Z,101155.22
2022-08-24T05:24:33.716Z,101157.28
2022-08-24T05:27:01.519Z,101158.25
2022-08-24T05:29:33.718Z,101152.41
2022-08-24T05:32:02.245Z,101155.09
2022-08-24T05:34:30.750Z,101153.47
2022-08-24T05:36:58.364Z,101140.22
2022-08-24T05:39:44.515Z,101149.06
2022-08-24T05:42:13.701Z,101147.69
2022-08-24T05:44:47.292Z,101141.16
2022-08-24T05:47:18.233Z,101146.91
2022-08-24T05:49:48.116Z,101143.59
2022-08-24T05:52:16.660Z,101145.69
2022-08-24T05:54:46.074Z,101146.75
2022-08-24T05:57:16.581Z,101151.78
2022-08-24T06:00:08.942Z,101145.97
2022-08-24T06:02:43.854Z,101140.78
2022-08-24T06:05:11.927Z,101141.66
2022-08-24T06:07:39.766Z,101150.81
2022-08-24T06:10:34.892Z,101150.56
2022-08-24T06:12:56.114Z,101150.28
2022-08-24T06:15:25.064Z,101145.19
2022-08-24T06:17:53.226Z,101150.47
2022-08-24T06:20:21.571Z,101150.72
2022-08-24T06:22:49.465Z,101152.44
2022-08-24T06:25:36.829Z,101151.13
2022-08-24T06:28:04.580Z,101150.97
2022-08-24T06:30:32.801Z,101147.25
2022-08-24T06:33:16.384Z,101145.59
2022-08-24T06:35:47.790Z,101146.63
2022-08-24T06:38:17.383Z,101147.13
2022-08-24T06:40:47.335Z,101154.72
2022-08-24T06:43:15.313Z,101135.78
2022-08-24T06:45:51.464Z,101133.38
2022-08-24T06:48:23.772Z,101130.63
2022-08-24T06:50:53.673Z,101128.91
2022-08-24T06:53:21.960Z,101130.09
2022-08-24T06:55:53.365Z,101121.44
2022-08-24T06:58:22.691Z,101108.00
2022-08-24T07:00:51.028Z,101109.84
2022-08-24T07:03:21.153Z,101107.38
2022-08-24T07:05:57.914Z,101110.25
2022-08-24T07:08:37.071Z,101112.72
2022-08-24T07:11:06.170Z,101105.72
2022-08-24T07:13:34.382Z,101113.44
2022-08-24T07:16:02.851Z,101109.88
2022-08-24T07:18:34.116Z,101114.50
2022-08-24T07:21:04.826Z,101107.78
2022-08-24T07:23:42.227Z,101104.53
2022-08-24T07:26:21.671Z,101114.41
2022-08-24T07:28:59.857Z,101099.38
2022-08-24T07:31:33.296Z,101099.38
2022-08-24T07:34:12.300Z,101092.75
2022-08-24T07:36:44.284Z,101087.88
2022-08-24T07:39:13.124Z,101093.03
2022-08-24T07:42:02.651Z,101094.91
2022-08-24T07:44:32.406Z,101090.69
2022-08-24T07:47:10.544Z,101083.94
2022-08-24T07:49:48.244Z,101082.19
2022-08-24T07:52:16.189Z,101081.44
2022-08-24T07:54:45.806Z,101085.50
2022-08-24T07:57:13.835Z,101084.94
2022-08-24T07:59:42.103Z,101076.66
2022-08-24T08:02:11.799Z,101081.28
2022-08-24T08:04:41.543Z,101079.75
2022-08-24T08:07:10.209Z,101088.63
2022-08-24T08:09:39.115Z,101074.13
2022-08-24T08:12:09.235Z,101084.38
2022-08-24T08:14:40.381Z,101075.44
2022-08-24T08:17:08.265Z,101080.97
2022-08-24T08:19:36.896Z,101085.59
2022-08-24T08:22:23.803Z,101083.34
2022-08-24T08:25:14.812Z,101072.97
2022-08-24T08:30:18.206Z,101072.13
2022-08-24T08:32:46.407Z,101075.09
2022-08-24T08:35:14.814Z,101075.66
2022-08-24T08:37:43.332Z,101073.75
2022-08-24T08:40:39.319Z,101068.88
2022-08-24T08:43:16.265Z,101077.75
2022-08-24T08:45:56.405Z,101069.72
2022-08-24T08:49:01.039Z,101072.25
2022-08-24T08:51:33.865Z,101076.47
2022-08-24T08:54:18.395Z,101079.91
2022-08-24T08:57:21.414Z,101072.63
2022-08-24T09:00:01.209Z,101082.47
2022-08-24T09:02:58.990Z,101080.09
2022-08-24T09:05:40.685Z,101069.03
2022-08-24T09:08:51.896Z,101061.66
2022-08-24T09:11:29.629Z,101068.50
2022-08-24T09:14:06.790Z,101066.25
2022-08-24T09:17:01.240Z,101068.81
2022-08-24T09:19:52.309Z,101061.66
2022-08-24T09:22:22.013Z,101060.28
2022-08-24T09:24:52.825Z,101069.25
2022-08-24T09:28:14.789Z,101060.38
2022-08-24T09:30:54.820Z,101050.13
2022-08-24T09:33:27.405Z,101054.38
2022-08-24T09:36:13.193Z,101053.16
2022-08-24T09:38:52.329Z,101057.38
2022-08-24T09:41:39.701Z,101043.44
2022-08-24T09:44:38.936Z,101058.66
2022-08-24T09:47:06.540Z,101058.06
2022-08-24T09:49:58.708Z,101051.25
2022-08-24T09:52:29.218Z,101058.41
2022-08-24T09:55:15.692Z,101051.69
2022-08-24T09:58:13.265Z,101052.31
2022-08-24T10:01:03.987Z,101049.22
2022-08-24T10:03:57.361Z,101050.50
2022-08-24T10:06:43.836Z,101045.91
2022-08-24T10:09:34.852Z,101036.69
2022-08-24T10:12:17.837Z,101056.66
2022-08-24T10:15:01.220Z,101048.00
2022-08-24T10:17:32.035Z,101057.47
2022-08-24T10:20:09.085Z,101055.19
2022-08-24T10:22:49.461Z,101058.53
2022-08-24T10:25:54.433Z,101063.84
2022-08-24T10:28:43.700Z,101055.44
2022-08-24T10:31:19.235Z,101056.06
2022-08-24T10:33:50.006Z,101062.97
2022-08-24T10:36:30.953Z,101059.00
2022-08-24T10:39:39.897Z,101062.56
2022-08-24T10:43:01.954Z,101058.78
2022-08-24T10:45:57.678Z,101046.00
2022-08-24T10:48:33.047Z,101064.84
2022-08-24T10:51:14.049Z,101059.22
2022-08-24T10:53:48.498Z,101056.88
2022-08-24T10:56:29.869Z,101052.94
2022-08-24T10:59:18.866Z,101047.88
2022-08-24T11:02:12.352Z,101051.66
2022-08-24T11:04:41.761Z,101048.50
2022-08-24T11:07:15.424Z,101054.78
2022-08-24T11:10:01.252Z,101042.81
2022-08-24T11:12:33.108Z,101043.47
2022-08-24T11:15:24.162Z,101049.16
2022-08-24T11:17:58.253Z,101036.50
2022-08-24T11:20:33.336Z,101036.50
2022-08-24T11:23:08.063Z,101031.94
2022-08-24T11:25:46.039Z,101041.34
2022-08-24T11:28:22.892Z,101033.38
2022-08-24T11:30:50.755Z,101021.59
2022-08-24T11:33:29.168Z,101002.50
2022-08-24T11:35:57.778Z,101032.94
2022-08-24T11:38:31.723Z,101040.72
2022-08-24T11:41:29.301Z,101038.84
2022-08-24T11:44:27.912Z,101033.97
2022-08-24T11:47:07.242Z,101029.59
2022-08-24T11:50:04.293Z,101039.91
2022-08-24T11:52:38.224Z,101026.63
2022-08-24T11:55:19.614Z,101036.50
2022-08-24T11:58:07.130Z,101028.31
2022-08-24T12:01:19.311Z,101022.66
2022-08-24T12:04:01.195Z,101021.59
2022-08-24T12:06:32.202Z,101014.22
2022-08-24T12:09:19.063Z,101026.59
2022-08-24T12:12:08.688Z,101026.84
2022-08-24T12:15:03.487Z,101023.25
2022-08-24T12:17:45.357Z,101012.31
2022-08-24T12:20:32.113Z,101012.72
2022-08-24T12:23:08.623Z,101003.94
2022-08-24T12:25:55.814Z,101006.28
2022-08-24T12:28:29.437Z,101014.25
2022-08-24T12:31:04.033Z,101009.63
2022-08-24T12:33:37.714Z,101019.94
2022-08-24T12:36:18.563Z,101008.56
2022-08-24T12:38:51.989Z,101019.91
2022-08-24T12:41:32.833Z,101015.28
2022-08-24T12:44:09.901Z,101016.13
2022-08-24T12:46:38.552Z,101009.81
2022-08-24T12:49:12.636Z,101013.78
2022-08-24T12:52:35.618Z,101016.28
2022-08-24T12:55:52.341Z,101005.97
2022-08-24T12:58:54.711Z,101005.72
2022-08-24T13:01:29.281Z,101014.56
2022-08-24T13:04:09.104Z,100998.63
2022-08-24T13:06:49.661Z,101010.00
2022-08-24T13:09:43.743Z,101012.47
2022-08-24T13:12:33.145Z,101005.94
2022-08-24T13:15:30.040Z,101008.84
2022-08-24T13:18:20.663Z,101001.69
2022-08-24T13:20:48.314Z,101002.59
2022-08-24T13:23:24.131Z,101004.97
2022-08-24T13:25:54.708Z,100998.44
2022-08-24T13:28:28.833Z,101003.50
2022-08-24T13:31:05.954Z,100995.09
2022-08-24T13:33:49.370Z,101007.25
2022-08-24T13:36:32.604Z,101012.72
2022-08-24T13:39:34.059Z,101006.41
2022-08-24T13:42:21.707Z,101009.13
2022-08-24T13:45:16.884Z,101011.03
2022-08-24T13:47:56.981Z,101007.25
2022-08-24T13:50:55.772Z,101002.59
2022-08-24T13:53:53.293Z,101002.84
2022-08-24T13:56:44.508Z,100997.19
2022-08-24T13:59:12.499Z,100994.66
2022-08-24T14:02:07.887Z,100991.09
2022-08-24T14:04:45.904Z,100987.97
2022-08-24T14:07:29.218Z,100997.41
2022-08-24T14:10:09.017Z,100995.50
2022-08-24T14:12:54.967Z,100994.44
2022-08-24T14:15:25.272Z,100995.34
2022-08-24T14:18:05.281Z,100991.13
2022-08-24T14:21:00.577Z,100998.06
2022-08-24T14:23:34.370Z,100988.00
2022-08-24T14:26:33.269Z,100987.16
2022-08-24T14:29:16.096Z,100991.97
2022-08-24T14:32:01.494Z,100995.97
2022-08-24T14:35:06.031Z,100986.09
2022-08-24T14:38:00.335Z,100989.69
2022-08-24T14:40:37.475Z,100990.72
2022-08-24T14:43:11.145Z,100987.78
2022-08-24T14:46:12.502Z,100984.41
2022-08-24T14:48:58.877Z,100987.34
2022-08-24T14:51:47.267Z,100989.69
2022-08-24T14:54:46.129Z,100989.06
2022-08-24T14:57:41.728Z,100987.56
2022-08-24T15:00:15.794Z,100995.78
2022-08-24T15:02:55.895Z,100990.50
2022-08-24T15:05:29.616Z,100993.84
2022-08-24T15:08:03.453Z,100989.69
2022-08-24T15:10:57.527Z,100989.47
2022-08-24T15:13:33.887Z,101003.75
2022-08-24T15:16:08.396Z,101001.00
2022-08-24T15:18:47.879Z,101001.81
2022-08-24T15:21:30.683Z,100996.75
2022-08-24T15:24:10.118Z,101000.31
2022-08-24T15:27:10.685Z,101000.81
2022-08-24T15:29:53.081Z,101001.94
2022-08-24T15:32:22.501Z,101002.06
2022-08-24T15:34:58.488Z,100996.63
2022-08-24T15:37:44.135Z,100994.19
2022-08-24T15:40:22.507Z,100991.28
2022-08-24T15:42:51.351Z,100997.88
2022-08-24T15:45:21.137Z,100993.66
2022-08-24T15:47:53.147Z,100993.44
2022-08-24T15:50:24.683Z,100994.63
2022-08-24T15:53:06.139Z,100994.56
2022-08-24T15:55:46.857Z,101000.78
2022-08-24T15:58:30.903Z,101005.31
2022-08-24T16:01:38.226Z,100997.69
2022-08-24T16:04:43.421Z,100997.19
2022-08-24T16:07:21.449Z,100992.34
2022-08-24T16:10:03.431Z,100996.72
2022-08-24T16:12:32.635Z,100998.28
2022-08-24T16:15:17.705Z,101004.06
2022-08-24T16:17:51.464Z,100996.91
2022-08-24T16:20:25.216Z,101009.81
2022-08-24T16:22:58.966Z,101002.84
2022-08-24T16:25:32.747Z,101013.22
2022-08-24T16:28:09.837Z,101007.25
2022-08-24T16:30:43.342Z,101006.97
2022-08-24T16:33:39.918Z,101010.22
2022-08-24T16:36:20.099Z,101015.16
2022-08-24T16:38:50.641Z,101009.34
2022-08-24T16:41:22.665Z,101010.13
2022-08-24T16:43:50.456Z,101010.72
2022-08-24T16:46:23.251Z,101013.16
2022-08-24T16:48:54.182Z,101013.25
2022-08-24T16:51:24.702Z,101012.69
2022-08-24T16:53:53.890Z,101010.38
2022-08-24T16:56:22.508Z,101017.31
2022-08-24T16:58:50.824Z,101019.94
2022-08-24T17:01:18.687Z,101015.66
2022-08-24T17:03:46.335Z,101026.59
2022-08-24T17:06:15.376Z,101029.91
2022-08-24T17:08:44.247Z,101028.94
2022-08-24T17:11:12.771Z,101028.53
2022-08-24T17:13:56.185Z,101032.63
2022-08-24T17:16:24.494Z,101033.56
2022-08-24T17:18:52.147Z,101038.53
2022-08-24T17:21:20.396Z,101041.78
2022-08-24T17:23:48.417Z,101041.03
2022-08-24T17:26:20.093Z,101044.84
2022-08-24T17:28:51.856Z,101046.59
2022-08-24T17:31:19.723Z,101050.91
2022-08-24T17:33:47.629Z,101051.22
2022-08-24T17:36:16.884Z,101047.34
2022-08-24T17:38:53.127Z,101050.84
2022-08-24T17:41:25.072Z,101050.91
2022-08-24T17:43:53.760Z,101049.47
2022-08-24T17:46:22.066Z,101049.81
2022-08-24T17:48:50.529Z,101052.38
2022-08-24T17:51:18.239Z,101050.22
2022-08-24T17:53:46.131Z,101048.91
2022-08-24T17:56:15.185Z,101041.81
2022-08-24T17:59:01.958Z,101044.94
2022-08-24T18:01:30.617Z,101049.84
2022-08-24T18:03:59.255Z,101042.25
2022-08-24T18:06:28.005Z,101048.38
2022-08-24T18:08:59.243Z,101045.34
2022-08-24T18:11:27.295Z,101046.56
2022-08-24T18:13:54.936Z,101045.19
2022-08-24T18:16:25.046Z,101051.66
2022-08-24T18:18:54.090Z,101045.91
2022-08-24T18:21:23.048Z,101049.97
2022-08-24T18:23:51.586Z,101043.34
2022-08-24T18:26:27.655Z,101043.06
2022-08-24T18:29:03.140Z,101041.50
2022-08-24T18:31:32.796Z,101045.94
2022-08-24T18:34:00.561Z,101042.41
2022-08-24T18:36:28.615Z,101042.41
2022-08-24T18:38:56.597Z,101033.09
2022-08-24T18:41:32.112Z,101035.97
2022-08-24T18:44:04.816Z,101039.34
2022-08-24T18:46:32.983Z,101040.19
2022-08-24T18:49:01.757Z,101039.03
2022-08-24T18:51:35.973Z,101033.09
2022-08-24T18:54:10.847Z,101035.16
2022-08-24T18:56:39.029Z,101036.50
2022-08-24T18:59:06.905Z,101030.91
2022-08-24T19:01:55.321Z,101037.50
2022-08-24T19:04:29.473Z,101033.63
2022-08-24T19:07:01.345Z,101037.16
2022-08-24T19:09:33.958Z,101033.25
2022-08-24T19:12:06.735Z,101029.19
2022-08-24T19:14:35.929Z,101039.66
2022-08-24T19:17:04.999Z,101035.28
2022-08-24T19:19:33.029Z,101030.72
2022-08-24T19:22:03.122Z,101021.59
2022-08-24T19:24:32.714Z,101035.59
2022-08-24T19:27:01.163Z,101032.38
2022-08-24T19:29:54.430Z,101026.13
2022-08-24T19:32:26.113Z,101028.97
2022-08-24T19:34:55.613Z,101033.53
2022-08-24T19:37:23.848Z,101032.16
2022-08-24T19:39:51.452Z,101037.38
2022-08-24T19:42:21.131Z,101028.97
2022-08-24T19:45:07.703Z,101030.75
2022-08-24T19:47:35.581Z,101031.78
2022-08-24T19:50:08.030Z,101029.03
2022-08-24T19:52:36.851Z,101030.34
2022-08-24T19:55:07.525Z,101023.09
2022-08-24T19:57:49.438Z,101029.00
2022-08-24T20:00:17.220Z,101030.66
2022-08-24T20:02:50.776Z,101030.31
2022-08-24T20:05:20.429Z,101026.94
2022-08-24T20:07:48.608Z,101030.75
2022-08-24T20:10:19.113Z,101022.81
2022-08-24T20:12:46.984Z,101031.03
2022-08-24T20:15:15.006Z,101023.78
2022-08-24T20:17:43.265Z,101027.34
2022-08-24T20:20:12.149Z,101026.63
2022-08-24T20:22:39.927Z,101025.38
2022-08-24T20:25:08.355Z,101022.00
2022-08-24T20:27:36.612Z,101022.66
2022-08-24T20:30:06.496Z,101024.69
2022-08-24T20:32:36.163Z,101016.94
2022-08-24T20:35:04.765Z,101023.84
2022-08-24T20:37:33.641Z,101023.34
2022-08-24T20:40:02.061Z,101020.06
2022-08-24T20:42:31.859Z,101017.47
2022-08-24T20:45:00.094Z,101017.09
2022-08-24T20:47:28.345Z,101014.72
2022-08-24T20:49:56.017Z,101020.91
2022-08-24T20:52:23.741Z,101013.44
2022-08-24T20:54:51.353Z,101008.53
2022-08-24T20:57:20.173Z,101006.13
2022-08-24T20:59:47.832Z,101011.22
2022-08-24T21:02:15.709Z,101007.97
2022-08-24T21:04:43.514Z,101000.72
2022-08-24T21:07:12.817Z,101009.00
2022-08-24T21:09:40.871Z,101007.75
2022-08-24T21:12:09.013Z,101000.16
2022-08-24T21:14:36.669Z,100999.22
2022-08-24T21:17:06.215Z,101001.63
2022-08-24T21:19:34.453Z,101006.78
2022-08-24T21:22:02.237Z,100998.63
2022-08-24T21:24:29.964Z,101007.41
2022-08-24T21:26:58.756Z,100997.00
2022-08-24T21:29:30.623Z,101002.53
2022-08-24T21:32:16.852Z,101007.25
2022-08-24T21:34:44.566Z,101002.06
2022-08-24T21:37:15.759Z,101004.06
2022-08-24T21:39:46.823Z,100994.69
2022-08-24T21:42:17.017Z,100995.53
2022-08-24T21:44:46.697Z,100992.28
2022-08-24T21:47:14.421Z,100992.28
2022-08-24T21:49:42.088Z,100987.03
2022-08-24T21:52:09.908Z,100982.09
2022-08-24T21:54:37.595Z,100981.13
2022-08-24T21:57:06.017Z,100982.44
2022-08-24T21:59:34.536Z,100977.03
2022-08-24T22:02:02.438Z,100979.06
2022-08-24T22:04:30.656Z,100972.59
2022-08-24T22:07:00.087Z,100970.75
2022-08-24T22:09:28.681Z,100973.97
2022-08-24T22:11:56.425Z,100972.59
2022-08-24T22:14:23.999Z,100967.19
2022-08-24T22:16:51.892Z,100967.66
2022-08-24T22:19:20.143Z,100964.72
2022-08-24T22:21:48.206Z,100963.19
2022-08-24T22:24:16.645Z,100964.50
2022-08-24T22:26:45.276Z,100965.72
2022-08-24T22:29:13.186Z,100958.94
2022-08-24T22:31:43.548Z,100955.00
2022-08-24T22:34:19.484Z,100959.72
2022-08-24T22:36:49.780Z,100954.88
2022-08-24T22:39:17.732Z,100954.47
2022-08-24T22:41:45.612Z,100948.25
2022-08-24T22:44:19.441Z,100956.50
2022-08-24T22:46:50.689Z,100949.09
2022-08-24T22:49:21.844Z,100948.41
2022-08-24T22:51:49.748Z,100941.09
2022-08-24T22:54:19.703Z,100941.81
2022-08-24T22:56:51.787Z,100941.38
2022-08-24T22:59:23.242Z,100946.94
2022-08-24T23:01:53.619Z,100944.06
2022-08-24T23:04:25.967Z,100942.91
2022-08-24T23:06:55.051Z,100942.16
2022-08-24T23:09:23.574Z,100945.16
2022-08-24T23:11:54.734Z,100938.34
2022-08-24T23:14:24.330Z,100941.88
2022-08-24T23:16:53.335Z,100947.25
2022-08-24T23:19:43.239Z,100948.41
2022-08-24T23:22:13.872Z,100943.03
2022-08-24T23:24:42.777Z,100948.09
2022-08-24T23:27:11.736Z,100948.41
2022-08-24T23:29:40.297Z,100945.00
2022-08-24T23:32:08.181Z,100944.31
2022-08-24T23:34:36.663Z,100938.09
2022-08-24T23:37:05.126Z,100954.09
2022-08-24T23:39:33.610Z,100947.44
2022-08-24T23:42:01.553Z,100945.22
2022-08-24T23:44:30.149Z,100950.75
2022-08-24T23:46:58.645Z,100952.59
2022-08-24T23:49:27.924Z,100956.00
2022-08-24T23:51:55.948Z,100945.22
2022-08-24T23:54:24.999Z,100952.31
2022-08-24T23:56:53.308Z,100944.97
2022-08-24T23:59:24.662Z,100948.81
